createdAt,value
2016-08-05T00:00:03.722Z,0
2016-08-05T00:01:03.738Z,0
2016-08-05T00:03:03.794Z,0
2016-08-05T00:04:03.817Z,0
2016-08-05T00:05:03.850Z,0
2016-08-05T00:06:03.876Z,0
2016-08-05T00:07:03.897Z,0
2016-08-05T00:08:03.926Z,0
2016-08-05T00:09:03.957Z,0
2016-08-05T00:11:04.004Z,0
2016-08-05T00:12:04.030Z,0
2016-08-05T00:13:04.059Z,0
2016-08-05T00:14:04.092Z,0
2016-08-05T00:15:04.116Z,0
2016-08-05T00:16:04.142Z,0
2016-08-05T00:17:19.086Z,0
2016-08-05T00:18:04.249Z,0
2016-08-05T00:19:04.231Z,0
2016-08-05T00:20:19.165Z,0
2016-08-05T00:21:04.266Z,0
2016-08-05T00:23:04.318Z,0
2016-08-05T00:24:04.408Z,0
2016-08-05T00:25:04.374Z,0
2016-08-05T00:26:05.105Z,0
2016-08-05T00:27:04.431Z,0
2016-08-05T00:28:04.450Z,0
2016-08-05T00:29:04.532Z,0
2016-08-05T00:30:04.515Z,0
2016-08-05T00:31:04.535Z,0
2016-08-05T00:32:04.570Z,0
2016-08-05T00:33:19.521Z,0
2016-08-05T00:34:19.535Z,0
2016-08-05T00:35:19.564Z,0
2016-08-05T00:36:04.675Z,0
2016-08-05T00:37:04.694Z,0
2016-08-05T00:38:04.723Z,0
2016-08-05T00:39:04.754Z,0
2016-08-05T00:40:04.775Z,0
2016-08-05T00:41:04.797Z,0
2016-08-05T00:42:04.880Z,0
2016-08-05T00:43:04.862Z,0
2016-08-05T00:44:04.878Z,0
2016-08-05T00:45:04.912Z,0
2016-08-05T00:46:19.864Z,0
2016-08-05T00:47:19.883Z,0
2016-08-05T00:48:04.984Z,0
2016-08-05T00:49:19.936Z,0
2016-08-05T00:50:05.041Z,0
2016-08-05T00:51:05.066Z,0
2016-08-05T00:52:05.102Z,0
2016-08-05T00:53:05.122Z,0
2016-08-05T00:54:05.163Z,0
2016-08-05T00:55:05.176Z,0
2016-08-05T00:56:05.196Z,0
2016-08-05T00:57:20.158Z,0
2016-08-05T00:58:05.259Z,0
2016-08-05T00:59:20.204Z,0
2016-08-05T01:00:05.304Z,0
2016-08-05T01:01:05.343Z,0
2016-08-05T01:02:05.368Z,0
2016-08-05T01:03:20.306Z,0
2016-08-05T01:04:05.416Z,0
2016-08-05T01:05:20.375Z,0
2016-08-05T01:06:05.455Z,0
2016-08-05T01:07:20.411Z,0
2016-08-05T01:08:20.432Z,0
2016-08-05T01:09:05.547Z,0
2016-08-05T01:10:05.580Z,0
2016-08-05T01:11:05.599Z,0
2016-08-05T01:12:05.629Z,0
2016-08-05T01:13:06.349Z,0
2016-08-05T01:14:20.606Z,0
2016-08-05T01:15:05.692Z,0
2016-08-05T01:16:05.717Z,0
2016-08-05T01:17:05.748Z,0
2016-08-05T01:18:05.775Z,0
2016-08-05T01:19:05.902Z,0
2016-08-05T01:20:05.831Z,0
2016-08-05T01:22:20.803Z,0
2016-08-05T01:24:05.938Z,0
2016-08-05T01:25:05.973Z,0
2016-08-05T01:26:05.985Z,0
2016-08-05T01:27:06.011Z,0
2016-08-05T01:29:06.068Z,0
2016-08-05T01:30:06.138Z,0
2016-08-05T01:31:06.117Z,0
2016-08-05T01:33:06.170Z,0
2016-08-05T01:34:06.203Z,0
2016-08-05T01:35:06.221Z,0
2016-08-05T01:36:06.259Z,0
2016-08-05T01:37:21.198Z,0
2016-08-05T01:38:06.292Z,0
2016-08-05T01:39:06.330Z,0
2016-08-05T01:40:06.361Z,0
2016-08-05T01:41:06.383Z,0
2016-08-05T01:42:06.405Z,0
2016-08-05T01:43:06.440Z,0
2016-08-05T01:44:06.452Z,0
2016-08-05T01:45:06.487Z,0
2016-08-05T01:46:06.504Z,0
2016-08-05T01:47:06.543Z,0
2016-08-05T01:48:06.571Z,0
2016-08-05T01:49:06.592Z,0
2016-08-05T01:50:06.613Z,0
2016-08-05T01:51:21.573Z,0
2016-08-05T01:52:21.595Z,0
2016-08-05T01:53:06.695Z,0
2016-08-05T01:54:06.726Z,0
2016-08-05T01:55:06.749Z,0
2016-08-05T01:56:06.777Z,0
2016-08-05T01:57:06.808Z,0
2016-08-05T01:58:06.822Z,0
2016-08-05T01:59:06.859Z,0
2016-08-05T02:00:06.934Z,0
2016-08-05T02:01:06.901Z,0
2016-08-05T02:02:06.928Z,0
2016-08-05T02:04:06.987Z,0
2016-08-05T02:05:21.938Z,0
2016-08-05T02:06:07.043Z,0
2016-08-05T02:07:07.063Z,0
2016-08-05T02:08:07.088Z,0
2016-08-05T02:10:07.154Z,0
2016-08-05T02:11:07.170Z,0
2016-08-05T02:12:07.204Z,0
2016-08-05T02:13:07.217Z,0
2016-08-05T02:14:07.260Z,0
2016-08-05T02:15:22.204Z,0
2016-08-05T02:16:07.299Z,0
2016-08-05T02:17:07.326Z,0
2016-08-05T02:18:22.280Z,0
2016-08-05T02:19:07.380Z,0
2016-08-05T02:20:07.408Z,0
2016-08-05T02:21:07.435Z,0
2016-08-05T02:22:08.155Z,0
2016-08-05T02:23:07.484Z,0
2016-08-05T02:24:22.435Z,0
2016-08-05T02:25:07.533Z,0
2016-08-05T02:26:07.617Z,0
2016-08-05T02:27:22.507Z,0
2016-08-05T02:28:07.616Z,0
2016-08-05T02:29:07.639Z,0
2016-08-05T02:30:22.598Z,0
2016-08-05T02:31:07.696Z,0
2016-08-05T02:32:07.718Z,0
2016-08-05T02:33:07.746Z,0
2016-08-05T02:34:07.762Z,0
2016-08-05T02:35:07.802Z,0
2016-08-05T02:36:07.873Z,0
2016-08-05T02:37:22.771Z,0
2016-08-05T02:38:07.877Z,0
2016-08-05T02:39:07.920Z,0
2016-08-05T02:40:22.851Z,0
2016-08-05T02:41:07.970Z,0
2016-08-05T02:42:22.903Z,0
2016-08-05T02:44:08.034Z,0
2016-08-05T02:45:08.110Z,0
2016-08-05T02:46:08.087Z,0
2016-08-05T02:47:08.110Z,0
2016-08-05T02:48:08.131Z,0
2016-08-05T02:49:08.173Z,0
2016-08-05T02:51:08.263Z,0
2016-08-05T02:52:08.246Z,0
2016-08-05T02:53:08.266Z,0
2016-08-05T02:54:08.299Z,0
2016-08-05T02:55:23.255Z,0
2016-08-05T02:56:23.262Z,0
2016-08-05T02:57:08.369Z,0
2016-08-05T02:58:08.397Z,0
2016-08-05T02:59:08.424Z,0
2016-08-05T03:00:08.448Z,0
2016-08-05T03:01:08.481Z,0
2016-08-05T03:02:08.502Z,0
2016-08-05T03:03:08.531Z,0
2016-08-05T03:04:08.547Z,0
2016-08-05T03:05:08.582Z,0
2016-08-05T03:06:08.606Z,0
2016-08-05T03:07:08.626Z,0
2016-08-05T03:08:08.658Z,0
2016-08-05T03:09:08.682Z,4
2016-08-05T03:10:08.712Z,4
2016-08-05T03:11:08.749Z,4
2016-08-05T03:12:23.678Z,0
2016-08-05T03:13:08.782Z,4
2016-08-05T03:14:08.808Z,4
2016-08-05T03:15:08.845Z,4
2016-08-05T03:16:08.859Z,4
2016-08-05T03:17:08.887Z,8
2016-08-05T03:18:08.919Z,4
2016-08-05T03:19:08.941Z,4
2016-08-05T03:20:08.968Z,8
2016-08-05T03:21:08.989Z,8
2016-08-05T03:22:23.948Z,8
2016-08-05T03:23:09.039Z,8
2016-08-05T03:24:09.079Z,12
2016-08-05T03:25:09.096Z,12
2016-08-05T03:26:24.050Z,12
2016-08-05T03:28:09.176Z,16
2016-08-05T03:29:09.204Z,12
2016-08-05T03:30:09.227Z,12
2016-08-05T03:31:09.250Z,12
2016-08-05T03:32:09.285Z,12
2016-08-05T03:34:09.343Z,12
2016-08-05T03:35:09.358Z,8
2016-08-05T03:36:09.387Z,12
2016-08-05T03:37:09.402Z,12
2016-08-05T03:38:09.440Z,12
2016-08-05T03:39:09.466Z,16
2016-08-05T03:40:10.228Z,12
2016-08-05T03:41:24.432Z,16
2016-08-05T03:42:24.460Z,16
2016-08-05T03:45:09.623Z,16
2016-08-05T03:46:24.558Z,20
2016-08-05T03:47:10.012Z,24
2016-08-05T03:48:09.688Z,24
2016-08-05T03:49:09.714Z,24
2016-08-05T03:50:09.750Z,20
2016-08-05T03:51:09.777Z,24
2016-08-05T03:53:09.823Z,28
2016-08-05T03:54:09.838Z,28
2016-08-05T03:55:09.884Z,28
2016-08-05T03:56:09.895Z,32
2016-08-05T03:57:24.850Z,36
2016-08-05T03:58:24.872Z,36
2016-08-05T03:59:24.899Z,40
2016-08-05T04:00:10.003Z,40
2016-08-05T04:01:10.028Z,48
2016-08-05T04:02:10.061Z,52
2016-08-05T04:03:10.079Z,52
2016-08-05T04:05:10.825Z,56
2016-08-05T04:06:10.161Z,60
2016-08-05T04:07:10.183Z,60
2016-08-05T04:09:10.236Z,76
2016-08-05T04:10:25.184Z,84
2016-08-05T04:11:10.285Z,88
2016-08-05T04:12:10.307Z,96
2016-08-05T04:13:10.333Z,100
2016-08-05T04:14:10.361Z,104
2016-08-05T04:15:25.306Z,108
2016-08-05T04:17:10.440Z,112
2016-08-05T04:18:10.465Z,116
2016-08-05T04:19:10.490Z,120
2016-08-05T04:20:10.512Z,124
2016-08-05T04:21:25.472Z,128
2016-08-05T04:22:10.573Z,136
2016-08-05T04:23:10.593Z,140
2016-08-05T04:25:10.637Z,156
2016-08-05T04:26:10.686Z,168
2016-08-05T04:27:10.698Z,164
2016-08-05T04:28:25.645Z,176
2016-08-05T04:29:10.749Z,188
2016-08-05T04:30:25.694Z,208
2016-08-05T04:31:25.723Z,220
2016-08-05T04:32:10.815Z,220
2016-08-05T04:33:10.854Z,228
2016-08-05T04:34:10.876Z,232
2016-08-05T04:35:10.893Z,240
2016-08-05T04:36:10.930Z,256
2016-08-05T04:38:10.966Z,280
2016-08-05T04:39:10.997Z,304
2016-08-05T04:40:11.028Z,324
2016-08-05T04:41:11.062Z,340
2016-08-05T04:42:11.073Z,356
2016-08-05T04:43:11.108Z,360
2016-08-05T04:44:11.130Z,360
2016-08-05T04:45:26.078Z,340
2016-08-05T04:46:11.186Z,328
2016-08-05T04:48:11.285Z,296
2016-08-05T04:49:11.267Z,284
2016-08-05T04:50:26.217Z,276
2016-08-05T04:51:26.243Z,276
2016-08-05T04:52:11.326Z,276
2016-08-05T04:53:11.414Z,272
2016-08-05T04:54:11.390Z,272
2016-08-05T04:55:11.415Z,276
2016-08-05T04:56:11.438Z,280
2016-08-05T04:57:11.467Z,284
2016-08-05T04:58:11.484Z,288
2016-08-05T04:59:11.517Z,284
2016-08-05T05:00:11.559Z,280
2016-08-05T05:01:11.573Z,276
2016-08-05T05:02:26.567Z,276
2016-08-05T05:03:11.617Z,272
2016-08-05T05:04:26.563Z,280
2016-08-05T05:05:11.676Z,284
2016-08-05T05:06:11.701Z,284
2016-08-05T05:07:11.922Z,288
2016-08-05T05:08:11.743Z,284
2016-08-05T05:09:11.771Z,280
2016-08-05T05:11:26.748Z,280
2016-08-05T05:12:11.842Z,288
2016-08-05T05:13:11.873Z,296
2016-08-05T05:14:11.899Z,304
2016-08-05T05:15:11.922Z,308
2016-08-05T05:16:11.947Z,308
2016-08-05T05:17:11.981Z,308
2016-08-05T05:18:12.003Z,308
2016-08-05T05:19:12.022Z,316
2016-08-05T05:20:12.054Z,324
2016-08-05T05:22:12.106Z,352
2016-08-05T05:23:12.838Z,368
2016-08-05T05:24:12.154Z,384
2016-08-05T05:25:12.193Z,404
2016-08-05T05:26:12.209Z,424
2016-08-05T05:27:12.235Z,444
2016-08-05T05:28:12.256Z,460
2016-08-05T05:29:12.289Z,480
2016-08-05T05:30:12.310Z,496
2016-08-05T05:31:27.257Z,520
2016-08-05T05:32:12.356Z,536
2016-08-05T05:33:27.310Z,564
2016-08-05T05:34:27.345Z,596
2016-08-05T05:35:12.435Z,620
2016-08-05T05:36:12.470Z,656
2016-08-05T05:37:12.486Z,688
2016-08-05T05:38:27.431Z,732
2016-08-05T05:39:12.535Z,760
2016-08-05T05:40:12.559Z,804
2016-08-05T05:41:12.586Z,852
2016-08-05T05:42:12.618Z,900
2016-08-05T05:43:12.639Z,964
2016-08-05T05:44:12.672Z,1016
2016-08-05T05:45:12.691Z,1076
2016-08-05T05:46:12.720Z,1136
2016-08-05T05:47:27.668Z,1208
2016-08-05T05:48:12.821Z,1264
2016-08-05T05:49:12.799Z,1324
2016-08-05T05:52:12.870Z,1356
2016-08-05T05:53:12.897Z,1296
2016-08-05T05:54:12.924Z,1208
2016-08-05T05:55:12.947Z,1112
2016-08-05T05:56:28.728Z,996
2016-08-05T05:57:13.005Z,948
2016-08-05T05:58:13.032Z,896
2016-08-05T05:59:13.050Z,860
2016-08-05T06:00:13.077Z,840
2016-08-05T06:01:13.103Z,824
2016-08-05T06:02:28.057Z,812
2016-08-05T06:03:28.079Z,812
2016-08-05T06:04:13.231Z,820
2016-08-05T06:05:28.131Z,848
2016-08-05T06:06:28.157Z,864
2016-08-05T06:07:13.267Z,876
2016-08-05T06:08:13.287Z,888
2016-08-05T06:09:13.317Z,904
2016-08-05T06:10:13.329Z,916
2016-08-05T06:11:14.285Z,924
2016-08-05T06:12:13.385Z,928
2016-08-05T06:13:13.422Z,936
2016-08-05T06:14:13.438Z,952
2016-08-05T06:15:13.457Z,976
2016-08-05T06:16:13.496Z,1008
2016-08-05T06:17:13.516Z,1044
2016-08-05T06:18:13.534Z,1084
2016-08-05T06:19:13.574Z,1128
2016-08-05T06:20:13.598Z,1168
2016-08-05T06:21:13.618Z,1216
2016-08-05T06:22:28.572Z,1272
2016-08-05T06:23:13.669Z,1308
2016-08-05T06:25:13.722Z,1408
2016-08-05T06:27:13.775Z,1524
2016-08-05T06:28:13.808Z,1604
2016-08-05T06:29:13.819Z,1692
2016-08-05T06:30:13.853Z,1792
2016-08-05T06:31:13.877Z,1884
2016-08-05T06:32:13.910Z,1972
2016-08-05T06:33:13.922Z,2048
2016-08-05T06:34:29.580Z,2124
2016-08-05T06:35:13.985Z,2168
2016-08-05T06:36:14.000Z,2212
2016-08-05T06:37:28.958Z,2244
2016-08-05T06:38:28.975Z,2252
2016-08-05T06:39:14.073Z,2256
2016-08-05T06:40:14.109Z,2256
2016-08-05T06:42:14.171Z,2248
2016-08-05T06:43:14.185Z,2268
2016-08-05T06:44:14.213Z,2296
2016-08-05T06:45:14.243Z,2328
2016-08-05T06:47:29.220Z,2376
2016-08-05T06:48:14.317Z,2380
2016-08-05T06:50:29.294Z,2380
2016-08-05T06:51:14.393Z,2380
2016-08-05T06:52:29.339Z,2404
2016-08-05T06:53:14.462Z,2420
2016-08-05T06:54:14.470Z,2448
2016-08-05T06:55:14.506Z,2480
2016-08-05T06:57:14.549Z,2536
2016-08-05T06:58:14.573Z,2536
2016-08-05T06:59:14.613Z,2504
2016-08-05T07:01:14.655Z,2388
2016-08-05T07:02:14.683Z,2340
2016-08-05T07:03:14.700Z,2308
2016-08-05T07:04:14.731Z,2264
2016-08-05T07:05:14.777Z,2248
2016-08-05T07:06:14.788Z,2220
2016-08-05T07:07:15.521Z,2220
2016-08-05T07:08:14.841Z,2228
2016-08-05T07:09:29.786Z,2284
2016-08-05T07:10:14.885Z,2332
2016-08-05T07:11:29.834Z,2424
2016-08-05T07:12:14.944Z,2508
2016-08-05T07:13:29.883Z,2644
2016-08-05T07:15:15.013Z,2860
2016-08-05T07:16:15.037Z,2988
2016-08-05T07:17:15.085Z,3080
2016-08-05T07:18:15.098Z,3184
2016-08-05T07:20:15.141Z,3256
2016-08-05T07:21:15.177Z,3136
2016-08-05T07:22:15.199Z,3080
2016-08-05T07:23:31.207Z,3020
2016-08-05T07:24:15.268Z,2976
2016-08-05T07:25:30.199Z,2972
2016-08-05T07:27:30.261Z,2912
2016-08-05T07:28:15.352Z,2872
2016-08-05T07:29:15.379Z,2824
2016-08-05T07:30:15.479Z,2792
2016-08-05T07:31:15.430Z,2732
2016-08-05T07:32:15.455Z,2680
2016-08-05T07:33:30.419Z,2572
2016-08-05T07:34:15.511Z,2528
2016-08-05T07:35:15.538Z,2460
2016-08-05T07:36:15.567Z,2448
2016-08-05T07:37:15.595Z,2432
2016-08-05T07:39:15.642Z,2388
2016-08-05T07:40:30.593Z,2408
2016-08-05T07:41:45.554Z,2444
2016-08-05T07:42:15.732Z,2448
2016-08-05T07:43:15.751Z,2472
2016-08-05T07:44:15.780Z,2556
2016-08-05T07:45:15.796Z,2688
2016-08-05T07:46:15.822Z,2812
2016-08-05T07:47:15.853Z,2904
2016-08-05T07:48:15.873Z,2944
2016-08-05T07:50:15.930Z,2920
2016-08-05T07:51:30.886Z,2940
2016-08-05T07:52:15.979Z,2948
2016-08-05T07:53:16.006Z,2960
2016-08-05T07:54:16.034Z,2972
2016-08-05T07:56:16.090Z,3028
2016-08-05T07:57:31.036Z,3108
2016-08-05T07:58:16.142Z,3144
2016-08-05T07:59:16.167Z,3184
2016-08-05T08:00:16.897Z,3220
2016-08-05T08:01:16.235Z,3240
2016-08-05T08:02:16.242Z,3256
2016-08-05T08:03:16.265Z,3288
2016-08-05T08:04:16.303Z,3336
2016-08-05T08:05:16.325Z,3384
2016-08-05T08:06:16.355Z,3424
2016-08-05T08:07:16.375Z,3460
2016-08-05T08:08:16.407Z,3484
2016-08-05T08:09:16.431Z,3500
2016-08-05T08:10:16.461Z,3500
2016-08-05T08:11:16.482Z,3452
2016-08-05T08:12:31.430Z,3360
2016-08-05T08:13:16.536Z,3300
2016-08-05T08:14:17.264Z,3228
2016-08-05T08:15:16.591Z,3060
2016-08-05T08:16:16.615Z,2932
2016-08-05T08:17:17.342Z,2812
2016-08-05T08:18:31.599Z,2684
2016-08-05T08:19:16.690Z,2628
2016-08-05T08:21:16.742Z,2656
2016-08-05T08:22:16.818Z,2684
2016-08-05T08:23:16.807Z,2740
2016-08-05T08:24:17.520Z,2864
2016-08-05T08:25:31.774Z,3124
2016-08-05T08:26:16.878Z,3320
2016-08-05T08:27:16.907Z,3620
2016-08-05T08:28:16.983Z,3924
2016-08-05T08:29:16.965Z,4216
2016-08-05T08:30:17.039Z,4532
2016-08-05T08:31:17.002Z,4876
2016-08-05T08:34:17.090Z,5412
2016-08-05T08:35:17.119Z,5340
2016-08-05T08:36:17.839Z,5268
2016-08-05T08:37:17.161Z,5440
2016-08-05T08:38:17.196Z,5732
2016-08-05T08:41:32.193Z,6224
2016-08-05T08:42:32.221Z,6416
2016-08-05T08:43:17.324Z,6568
2016-08-05T08:44:32.277Z,6784
2016-08-05T08:45:32.298Z,6948
2016-08-05T08:46:32.329Z,7060
2016-08-05T08:47:17.429Z,7120
2016-08-05T08:48:17.462Z,7184
2016-08-05T08:49:17.480Z,7256
2016-08-05T08:50:17.516Z,7280
2016-08-05T08:51:32.464Z,7256
2016-08-05T08:53:17.587Z,7248
2016-08-05T08:54:17.613Z,7240
2016-08-05T08:55:17.650Z,7228
2016-08-05T08:56:17.685Z,7168
2016-08-05T08:57:17.689Z,7096
2016-08-05T08:58:17.721Z,7024
2016-08-05T08:59:17.746Z,6816
2016-08-05T09:00:32.697Z,6648
2016-08-05T09:01:17.822Z,6788
2016-08-05T09:02:17.830Z,6920
2016-08-05T09:03:17.862Z,6860
2016-08-05T09:04:17.886Z,6696
2016-08-05T09:05:17.909Z,6556
2016-08-05T09:06:17.940Z,6864
2016-08-05T09:07:17.954Z,7220
2016-08-05T09:08:18.000Z,7644
2016-08-05T09:09:18.071Z,7912
2016-08-05T09:10:18.045Z,7928
2016-08-05T09:11:18.068Z,7624
2016-08-05T09:12:18.099Z,6804
2016-08-05T09:13:18.126Z,6392
2016-08-05T09:14:18.145Z,6260
2016-08-05T09:15:18.184Z,6156
2016-08-05T09:16:33.123Z,5844
2016-08-05T09:17:18.240Z,5700
2016-08-05T09:18:18.959Z,5700
2016-08-05T09:19:18.298Z,5640
2016-08-05T09:20:18.319Z,5432
2016-08-05T09:21:18.350Z,5484
2016-08-05T09:22:18.373Z,5644
2016-08-05T09:23:18.400Z,5832
2016-08-05T09:24:18.425Z,5820
2016-08-05T09:25:18.450Z,5924
2016-08-05T09:26:18.487Z,5908
2016-08-05T09:27:19.202Z,5884
2016-08-05T09:28:33.460Z,5820
2016-08-05T09:29:33.587Z,5784
2016-08-05T09:30:18.595Z,5904
2016-08-05T09:31:18.618Z,6180
2016-08-05T09:32:33.561Z,6656
2016-08-05T09:33:18.677Z,7040
2016-08-05T09:34:18.699Z,7524
2016-08-05T09:35:18.725Z,7816
2016-08-05T09:36:18.750Z,7988
2016-08-05T09:37:18.777Z,7992
2016-08-05T09:38:18.807Z,8024
2016-08-05T09:39:18.825Z,7912
2016-08-05T09:40:18.857Z,7964
2016-08-05T09:41:18.892Z,8164
2016-08-05T09:42:18.917Z,8560
2016-08-05T09:43:18.942Z,9100
2016-08-05T09:44:18.966Z,9556
2016-08-05T09:45:33.921Z,9940
2016-08-05T09:47:33.973Z,10272
2016-08-05T09:48:19.084Z,10344
2016-08-05T09:49:19.106Z,10304
2016-08-05T09:51:19.168Z,10532
2016-08-05T09:52:19.195Z,10820
2016-08-05T09:53:19.216Z,11136
2016-08-05T09:54:19.250Z,11360
2016-08-05T09:55:19.275Z,11576
2016-08-05T09:56:19.302Z,11732
2016-08-05T09:57:19.333Z,11788
2016-08-05T09:58:19.376Z,12256
2016-08-05T10:00:34.340Z,13120
2016-08-05T10:01:19.455Z,13504
2016-08-05T10:03:34.420Z,13004
2016-08-05T10:04:34.449Z,12676
2016-08-05T10:05:34.476Z,11644
2016-08-05T10:06:20.290Z,11060
2016-08-05T10:07:34.531Z,10560
2016-08-05T10:08:19.645Z,10352
2016-08-05T10:09:19.677Z,9796
2016-08-05T10:10:19.715Z,9584
2016-08-05T10:11:19.741Z,9956
2016-08-05T10:12:19.750Z,10236
2016-08-05T10:13:19.776Z,10524
2016-08-05T10:14:19.823Z,10764
2016-08-05T10:15:19.842Z,11020
2016-08-05T10:16:19.875Z,10956
2016-08-05T10:17:34.821Z,10624
2016-08-05T10:18:19.920Z,10540
2016-08-05T10:19:34.884Z,10488
2016-08-05T10:20:19.979Z,10544
2016-08-05T10:21:20.014Z,10632
2016-08-05T10:22:20.040Z,10404
2016-08-05T10:23:20.078Z,9836
2016-08-05T10:24:20.093Z,9440
2016-08-05T10:25:20.123Z,9272
2016-08-05T10:26:20.159Z,9544
2016-08-05T10:27:20.188Z,9964
2016-08-05T10:28:20.234Z,10652
2016-08-05T10:29:20.241Z,11600
2016-08-05T10:30:20.272Z,12596
2016-08-05T10:31:35.281Z,13572
2016-08-05T10:33:20.371Z,13640
2016-08-05T10:34:20.386Z,13620
2016-08-05T10:35:35.345Z,13504
2016-08-05T10:36:20.459Z,13444
2016-08-05T10:37:20.482Z,13340
2016-08-05T10:38:20.510Z,13228
2016-08-05T10:39:20.526Z,12992
2016-08-05T10:40:20.561Z,12680
2016-08-05T10:41:20.586Z,12256
2016-08-05T10:42:20.627Z,11776
2016-08-05T10:43:20.653Z,11384
2016-08-05T10:44:21.385Z,11180
2016-08-05T10:45:20.703Z,11240
2016-08-05T10:46:20.739Z,11500
2016-08-05T10:47:20.772Z,11768
2016-08-05T10:48:20.791Z,11892
2016-08-05T10:49:20.828Z,11820
2016-08-05T10:50:20.847Z,11592
2016-08-05T10:51:35.807Z,11208
2016-08-05T10:52:20.910Z,11108
2016-08-05T10:53:35.862Z,11232
2016-08-05T10:54:20.972Z,11388
2016-08-05T10:55:20.995Z,11632
2016-08-05T10:56:21.051Z,11796
2016-08-05T10:57:21.055Z,11920
2016-08-05T10:58:21.086Z,12052
2016-08-05T11:00:21.147Z,12500
2016-08-05T11:01:21.175Z,12640
2016-08-05T11:02:21.910Z,12884
2016-08-05T11:03:21.237Z,13044
2016-08-05T11:04:21.262Z,12940
2016-08-05T11:05:21.319Z,12952
2016-08-05T11:06:21.317Z,13028
2016-08-05T11:07:36.284Z,13444
2016-08-05T11:08:21.380Z,14536
2016-08-05T11:10:21.450Z,15448
2016-08-05T11:11:21.480Z,14412
2016-08-05T11:12:21.558Z,13524
2016-08-05T11:13:21.530Z,13200
2016-08-05T11:14:21.564Z,12928
2016-08-05T11:15:21.601Z,12952
2016-08-05T11:16:21.627Z,12848
2016-08-05T11:17:21.654Z,12612
2016-08-05T11:18:21.687Z,12448
2016-08-05T11:19:22.417Z,12556
2016-08-05T11:20:21.737Z,12636
2016-08-05T11:21:21.779Z,12652
2016-08-05T11:23:21.841Z,12096
2016-08-05T11:24:21.865Z,12168
2016-08-05T11:25:21.897Z,12772
2016-08-05T11:26:21.928Z,13576
2016-08-05T11:27:21.958Z,13424
2016-08-05T11:28:22.679Z,12852
2016-08-05T11:30:22.042Z,11284
2016-08-05T11:31:22.096Z,10876
2016-08-05T11:32:22.106Z,10692
2016-08-05T11:33:22.139Z,10572
2016-08-05T11:34:22.170Z,10460
2016-08-05T11:35:22.200Z,10140
2016-08-05T11:36:22.274Z,9908
2016-08-05T11:37:22.311Z,9748
2016-08-05T11:38:37.216Z,9676
2016-08-05T11:39:22.325Z,9596
2016-08-05T11:40:22.347Z,9444
2016-08-05T11:41:22.392Z,9248
2016-08-05T11:42:22.513Z,9012
2016-08-05T11:43:22.443Z,8864
2016-08-05T11:44:22.469Z,8728
2016-08-05T11:45:22.499Z,8640
2016-08-05T11:46:22.533Z,8584
2016-08-05T11:47:22.552Z,8704
2016-08-05T11:48:37.516Z,9076
2016-08-05T11:49:22.621Z,9360
2016-08-05T11:50:22.652Z,9732
2016-08-05T11:51:22.686Z,10020
2016-08-05T11:52:22.712Z,10240
2016-08-05T11:53:37.667Z,10388
2016-08-05T11:54:37.690Z,10456
2016-08-05T11:55:22.796Z,10496
2016-08-05T11:57:22.866Z,10060
2016-08-05T11:58:22.887Z,9956
2016-08-05T11:59:22.924Z,10184
2016-08-05T12:00:22.972Z,10424
2016-08-05T12:01:22.989Z,10640
2016-08-05T12:02:23.012Z,10760
2016-08-05T12:03:23.047Z,10876
2016-08-05T12:04:23.063Z,10876
2016-08-05T12:05:38.028Z,10900
2016-08-05T12:06:23.126Z,10976
2016-08-05T12:07:23.153Z,11080
2016-08-05T12:08:23.204Z,11148
2016-08-05T12:09:23.212Z,11236
2016-08-05T12:10:38.178Z,11252
2016-08-05T12:11:23.290Z,11080
2016-08-05T12:12:23.308Z,10724
2016-08-05T12:13:23.361Z,10448
2016-08-05T12:14:38.341Z,10268
2016-08-05T12:15:23.403Z,10124
2016-08-05T12:16:23.435Z,9904
2016-08-05T12:17:23.461Z,9720
2016-08-05T12:18:23.497Z,9800
2016-08-05T12:19:23.523Z,10024
2016-08-05T12:20:23.555Z,10032
2016-08-05T12:21:23.589Z,9960
2016-08-05T12:22:38.536Z,9864
2016-08-05T12:23:23.640Z,9824
2016-08-05T12:26:38.653Z,9676
2016-08-05T12:27:39.516Z,9684
2016-08-05T12:30:38.772Z,10096
2016-08-05T12:31:23.890Z,10116
2016-08-05T12:32:23.913Z,9792
2016-08-05T12:33:23.947Z,9172
2016-08-05T12:34:23.976Z,8468
2016-08-05T12:35:24.000Z,8044
2016-08-05T12:36:24.034Z,8008
2016-08-05T12:37:24.115Z,8076
2016-08-05T12:38:24.099Z,8228
2016-08-05T12:39:24.128Z,8308
2016-08-05T12:40:39.080Z,8180
2016-08-05T12:41:24.192Z,8096
2016-08-05T12:42:39.203Z,8004
2016-08-05T12:44:39.200Z,7748
2016-08-05T12:45:24.359Z,7584
2016-08-05T12:46:24.334Z,7208
2016-08-05T12:47:24.369Z,6584
2016-08-05T12:48:24.402Z,5720
2016-08-05T12:49:24.425Z,4992
2016-08-05T12:50:24.460Z,4536
2016-08-05T12:51:39.417Z,4064
2016-08-05T12:52:24.524Z,3836
2016-08-05T12:53:39.476Z,3612
2016-08-05T12:54:24.572Z,3516
2016-08-05T12:55:24.603Z,3392
2016-08-05T12:56:40.273Z,3220
2016-08-05T12:57:39.607Z,2952
2016-08-05T12:58:24.698Z,2676
2016-08-05T12:59:24.731Z,2368
2016-08-05T13:00:24.757Z,2132
2016-08-05T13:01:25.484Z,2048
2016-08-05T13:02:24.821Z,2104
2016-08-05T13:03:24.845Z,2280
2016-08-05T13:04:24.881Z,2544
2016-08-05T13:05:39.838Z,2932
2016-08-05T13:06:24.933Z,3224
2016-08-05T13:07:24.969Z,3568
2016-08-05T13:08:24.988Z,3816
2016-08-05T13:09:25.029Z,4012
2016-08-05T13:10:25.052Z,4296
2016-08-05T13:11:25.080Z,4640
2016-08-05T13:13:25.139Z,5160
2016-08-05T13:14:25.171Z,5392
2016-08-05T13:16:40.146Z,5848
2016-08-05T13:18:25.291Z,6064
2016-08-05T13:19:25.320Z,6144
2016-08-05T13:20:25.350Z,6220
2016-08-05T13:21:25.375Z,6316
2016-08-05T13:22:25.396Z,6440
2016-08-05T13:24:25.468Z,6856
2016-08-05T13:25:25.498Z,7124
2016-08-05T13:26:25.518Z,7388
2016-08-05T13:28:25.576Z,7828
2016-08-05T13:29:40.535Z,8020
2016-08-05T13:30:25.637Z,8092
2016-08-05T13:31:25.667Z,8172
2016-08-05T13:32:25.692Z,8212
2016-08-05T13:33:25.732Z,8248
2016-08-05T13:34:40.684Z,8276
2016-08-05T13:35:25.781Z,8228
2016-08-05T13:36:25.811Z,8140
2016-08-05T13:37:25.847Z,8040
2016-08-05T13:38:25.869Z,7752
2016-08-05T13:39:25.906Z,7020
2016-08-05T13:40:25.934Z,6172
2016-08-05T13:41:25.953Z,5560
2016-08-05T13:43:26.019Z,4744
2016-08-05T13:44:26.054Z,4472
2016-08-05T13:45:41.007Z,4256
2016-08-05T13:46:26.158Z,4232
2016-08-05T13:47:26.134Z,4472
2016-08-05T13:48:41.080Z,4808
2016-08-05T13:49:26.206Z,4892
2016-08-05T13:50:26.223Z,4876
2016-08-05T13:51:26.258Z,4752
2016-08-05T13:52:26.333Z,4596
2016-08-05T13:53:26.309Z,4460
2016-08-05T13:54:26.334Z,4380
2016-08-05T13:55:27.063Z,4360
2016-08-05T13:56:26.401Z,4296
2016-08-05T13:58:41.385Z,4304
2016-08-05T13:59:26.483Z,4460
2016-08-05T14:00:26.531Z,4692
2016-08-05T14:01:41.471Z,4880
2016-08-05T14:02:26.568Z,4856
2016-08-05T14:03:26.611Z,4688
2016-08-05T14:04:26.631Z,4372
2016-08-05T14:05:26.660Z,4024
2016-08-05T14:06:26.689Z,3776
2016-08-05T14:07:26.711Z,3608
2016-08-05T14:09:26.773Z,3392
2016-08-05T14:10:27.506Z,3408
2016-08-05T14:11:26.835Z,3532
2016-08-05T14:13:26.902Z,4180
2016-08-05T14:14:26.915Z,4600
2016-08-05T14:15:27.642Z,4848
2016-08-05T14:16:26.982Z,4820
2016-08-05T14:17:41.933Z,4716
2016-08-05T14:18:27.035Z,4780
2016-08-05T14:20:27.090Z,5648
2016-08-05T14:21:27.123Z,5744
2016-08-05T14:22:27.158Z,6452
2016-08-05T14:23:27.181Z,7044
2016-08-05T14:24:27.205Z,7696
2016-08-05T14:25:27.239Z,8544
2016-08-05T14:26:27.271Z,8684
2016-08-05T14:27:27.298Z,8976
2016-08-05T14:28:27.326Z,8664
2016-08-05T14:29:27.353Z,9544
2016-08-05T14:31:27.418Z,9116
2016-08-05T14:32:42.361Z,8268
2016-08-05T14:33:27.463Z,8320
2016-08-05T14:34:27.502Z,8336
2016-08-05T14:35:27.541Z,8496
2016-08-05T14:36:27.570Z,8696
2016-08-05T14:37:27.594Z,9388
2016-08-05T14:38:27.612Z,10072
2016-08-05T14:39:27.650Z,10140
2016-08-05T14:40:27.723Z,9652
2016-08-05T14:41:28.409Z,9996
2016-08-05T14:42:27.734Z,9620
2016-08-05T14:43:27.774Z,9564
2016-08-05T14:44:27.797Z,9448
2016-08-05T14:45:27.823Z,10084
2016-08-05T14:46:27.858Z,10192
2016-08-05T14:47:42.807Z,9752
2016-08-05T14:48:27.927Z,10020
2016-08-05T14:49:27.953Z,9288
2016-08-05T14:50:27.970Z,8904